Time;durP1;ratioP1;P1;durP2;ratioP2;P2;SDS_P1;SDS_P2;PMS_P1;PMS_P2;Temp;Humidity;BMP_temperature;BMP_pressure;BME280_temperature;BME280_humidity;BME280_pressure;Samples;Min_cycle;Max_cycle;Signal;HPM_P1;HPM_P2
2022/10/13 00:00:25;;;;;;;43.45;17.02;;;10.50;99.90;;;;;;5113351;28;20187;-52
2022/10/13 00:02:51;;;;;;;18.83;9.23;;;10.40;99.90;;;;;;5112809;28;20252;-51
2022/10/13 00:05:17;;;;;;;15.75;8.18;;;10.40;99.90;;;;;;5113280;28;20164;-52
2022/10/13 00:07:42;;;;;;;12.25;7.90;;;10.40;99.90;;;;;;5112966;28;20546;-51
2022/10/13 00:10:08;;;;;;;14.35;8.52;;;10.40;99.90;;;;;;5112890;28;20169;-51
2022/10/13 00:12:35;;;;;;;15.52;8.77;;;10.40;99.90;;;;;;5112951;28;20176;-51
2022/10/13 00:15:01;;;;;;;18.10;9.70;;;10.30;99.90;;;;;;5113153;28;20180;-51
2022/10/13 00:17:26;;;;;;;19.02;9.20;;;10.40;99.90;;;;;;5113140;28;20204;-51
2022/10/13 00:19:52;;;;;;;16.20;9.23;;;10.30;99.90;;;;;;5112834;28;20225;-51
2022/10/13 00:22:17;;;;;;;14.38;8.70;;;10.30;99.90;;;;;;5112700;28;20274;-51
2022/10/13 00:24:43;;;;;;;15.13;9.15;;;10.30;99.90;;;;;;5112724;28;20199;-51
2022/10/13 00:27:08;;;;;;;13.48;8.20;;;10.40;99.90;;;;;;5112433;28;20176;-51
2022/10/13 00:29:34;;;;;;;21.90;9.38;;;10.40;99.90;;;;;;5112662;28;20157;-51
2022/10/13 00:32:00;;;;;;;21.02;9.65;;;10.40;99.90;;;;;;5112641;28;20245;-52
2022/10/13 00:34:25;;;;;;;15.88;9.98;;;10.40;99.90;;;;;;5112928;28;20628;-52
2022/10/13 00:36:51;;;;;;;12.57;9.05;;;10.40;99.90;;;;;;5112506;28;20670;-52
2022/10/13 00:39:16;;;;;;;25.67;11.25;;;10.40;99.90;;;;;;5112584;28;20168;-52
2022/10/13 00:41:42;;;;;;;19.98;9.35;;;10.40;99.90;;;;;;5112528;28;20168;-51
2022/10/13 00:44:45;;;;;;;18.48;10.30;;;10.40;99.90;;;;;;5112559;28;20252;-51
2022/10/13 00:47:11;;;;;;;25.63;10.57;;;10.40;99.90;;;;;;5112430;28;20164;-51
2022/10/13 00:49:36;;;;;;;16.80;9.52;;;10.40;99.90;;;;;;5113006;28;20542;-51
2022/10/13 00:52:03;;;;;;;18.25;9.93;;;10.50;99.90;;;;;;5112384;28;20161;-51
2022/10/13 00:54:28;;;;;;;17.25;10.60;;;10.50;99.90;;;;;;5112665;28;20169;-51
2022/10/13 00:56:55;;;;;;;16.98;9.35;;;10.50;99.90;;;;;;5112416;28;20212;-51
2022/10/13 00:59:27;;;;;;;21.27;10.13;;;10.50;99.90;;;;;;5112516;28;20196;-51
2022/10/13 01:01:54;;;;;;;15.15;9.52;;;10.60;99.90;;;;;;5112464;28;20495;-51
2022/10/13 01:04:23;;;;;;;19.45;10.55;;;10.50;99.90;;;;;;5112467;28;20176;-52
2022/10/13 01:06:49;;;;;;;17.40;9.98;;;10.50;99.90;;;;;;5093899;28;20190;-53
2022/10/13 01:09:14;;;;;;;15.65;10.20;;;10.60;99.90;;;;;;5112254;28;20624;-51
2022/10/13 01:12:19;;;;;;;17.83;9.30;;;10.50;99.90;;;;;;5112146;28;20222;-52
2022/10/13 01:14:54;;;;;;;17.92;8.93;;;10.50;99.90;;;;;;5112055;28;20164;-51
2022/10/13 01:17:59;;;;;;;20.15;9.80;;;10.50;99.90;;;;;;5112006;28;20196;-52
2022/10/13 01:20:46;;;;;;;15.70;9.43;;;10.50;99.90;;;;;;5112612;28;20199;-51
2022/10/13 01:23:50;;;;;;;20.85;10.73;;;10.50;99.90;;;;;;5112045;28;20628;-51
2022/10/13 01:26:39;;;;;;;18.95;9.60;;;10.50;99.90;;;;;;5112088;28;20255;-51
2022/10/13 01:29:14;;;;;;;20.42;10.63;;;10.50;99.90;;;;;;5112051;28;20175;-51
2022/10/13 01:31:58;;;;;;;19.67;10.30;;;10.50;99.90;;;;;;5111968;28;20160;-52
2022/10/13 01:34:32;;;;;;;25.95;10.93;;;10.50;99.90;;;;;;5112403;28;20200;-51
2022/10/13 01:37:07;;;;;;;19.73;9.73;;;10.50;99.90;;;;;;5112169;28;20275;-51
2022/10/13 01:39:45;;;;;;;17.50;9.98;;;10.50;99.90;;;;;;5113480;28;20172;-51
2022/10/13 01:42:18;;;;;;;19.23;10.77;;;10.50;99.90;;;;;;5115929;28;20156;-51
2022/10/13 01:44:49;;;;;;;20.80;10.65;;;10.50;99.90;;;;;;5115897;28;20624;-51
2022/10/13 01:47:17;;;;;;;20.08;10.25;;;10.60;99.90;;;;;;5115771;28;20157;-51
2022/10/13 01:49:44;;;;;;;19.98;9.45;;;10.60;99.90;;;;;;5115690;28;20164;-51
2022/10/13 01:52:14;;;;;;;23.70;10.30;;;10.70;99.90;;;;;;5115615;28;20173;-51
2022/10/13 01:54:40;;;;;;;23.17;10.95;;;10.80;99.90;;;;;;5115693;28;20180;-51
2022/10/13 01:57:32;;;;;;;21.70;10.20;;;10.80;99.90;;;;;;5115345;28;20220;-51
2022/10/13 02:00:02;;;;;;;26.20;11.00;;;10.80;99.90;;;;;;5116255;28;20180;-51
2022/10/13 02:02:42;;;;;;;24.45;11.13;;;10.80;99.90;;;;;;5116017;28;20172;-51
2022/10/13 02:05:13;;;;;;;31.02;11.10;;;10.90;99.90;;;;;;5115589;28;20164;-52
2022/10/13 02:08:20;;;;;;;28.52;12.02;;;11.00;99.90;;;;;;5115728;28;20165;-51
2022/10/13 02:11:10;;;;;;;26.70;10.32;;;11.00;99.90;;;;;;5114721;28;20187;-51
2022/10/13 02:13:39;;;;;;;25.25;11.20;;;11.00;99.90;;;;;;5114546;28;20185;-52
2022/10/13 02:16:05;;;;;;;25.88;11.65;;;11.00;99.90;;;;;;5115397;28;20165;-51
2022/10/13 02:18:34;;;;;;;25.45;11.75;;;11.00;99.90;;;;;;5115097;28;20226;-50
2022/10/13 02:21:01;;;;;;;28.90;10.82;;;11.10;99.90;;;;;;5115145;28;20647;-51
2022/10/13 02:23:27;;;;;;;21.98;10.60;;;11.10;99.90;;;;;;5115435;28;20168;-51
2022/10/13 02:25:55;;;;;;;28.30;12.50;;;11.00;99.90;;;;;;5096564;28;20165;-51
2022/10/13 02:28:21;;;;;;;23.65;11.75;;;11.10;99.90;;;;;;5114757;28;20611;-51
2022/10/13 02:30:47;;;;;;;22.98;10.63;;;11.10;99.90;;;;;;5114960;28;20173;-51
2022/10/13 02:33:13;;;;;;;27.70;11.57;;;11.10;99.90;;;;;;5114875;28;20631;-51
2022/10/13 02:35:39;;;;;;;21.33;10.65;;;11.20;99.90;;;;;;5114917;28;20168;-51
2022/10/13 02:38:05;;;;;;;23.92;11.38;;;11.10;99.90;;;;;;5114773;28;20690;-51
2022/10/13 02:40:31;;;;;;;26.85;11.32;;;11.10;99.90;;;;;;5114646;28;20650;-51
2022/10/13 02:42:56;;;;;;;20.80;10.57;;;11.00;99.90;;;;;;5115294;28;20172;-51
2022/10/13 02:45:22;;;;;;;27.00;11.15;;;11.00;99.90;;;;;;5114610;28;20627;-51
2022/10/13 02:47:48;;;;;;;19.38;11.05;;;11.00;99.90;;;;;;5114607;28;20220;-51
2022/10/13 02:50:14;;;;;;;22.95;10.82;;;10.90;99.90;;;;;;5114253;28;20192;-51
2022/10/13 02:52:39;;;;;;;25.65;11.02;;;10.90;99.90;;;;;;5114564;28;20194;-51
2022/10/13 02:55:06;;;;;;;24.00;11.52;;;10.90;99.90;;;;;;5114525;28;20501;-51
2022/10/13 02:57:31;;;;;;;17.95;10.75;;;10.90;99.90;;;;;;5114200;28;20563;-51
2022/10/13 02:59:57;;;;;;;18.48;9.15;;;10.90;99.90;;;;;;5114721;28;20183;-52
2022/10/13 03:02:22;;;;;;;25.10;10.73;;;10.90;99.90;;;;;;5096049;28;20172;-52
2022/10/13 03:04:48;;;;;;;17.23;9.63;;;11.00;99.90;;;;;;5114606;28;20172;-51
2022/10/13 03:07:14;;;;;;;22.88;10.77;;;10.90;99.90;;;;;;5114223;28;20636;-51
2022/10/13 03:09:40;;;;;;;20.30;9.27;;;10.90;99.90;;;;;;5114180;28;20192;-52
2022/10/13 03:12:06;;;;;;;18.58;8.90;;;10.90;99.90;;;;;;5096115;28;20213;-51
2022/10/13 03:14:31;;;;;;;18.08;8.18;;;10.90;99.90;;;;;;5114064;28;20172;-52
2022/10/13 03:16:57;;;;;;;11.45;7.75;;;10.90;99.90;;;;;;5114270;28;20200;-51
2022/10/13 03:19:23;;;;;;;14.10;7.93;;;11.00;99.90;;;;;;5114540;28;20172;-52
2022/10/13 03:21:49;;;;;;;14.15;8.23;;;11.00;99.90;;;;;;5114169;28;20196;-51
2022/10/13 03:24:14;;;;;;;18.83;8.30;;;11.00;99.90;;;;;;5113945;28;20628;-52
2022/10/13 03:26:40;;;;;;;12.48;7.07;;;11.00;99.90;;;;;;5113768;28;20179;-51
2022/10/13 03:29:05;;;;;;;17.02;7.90;;;10.90;99.90;;;;;;5095455;28;20169;-52
2022/10/13 03:31:31;;;;;;;13.02;7.30;;;11.00;99.90;;;;;;5113801;28;20723;-52
2022/10/13 03:33:57;;;;;;;15.18;7.85;;;10.90;99.90;;;;;;5114086;28;20169;-52
2022/10/13 03:36:22;;;;;;;13.88;7.63;;;11.00;99.90;;;;;;5113546;28;20161;-52
2022/10/13 03:38:48;;;;;;;12.70;7.35;;;10.90;99.90;;;;;;5113578;28;20161;-52
2022/10/13 03:41:16;;;;;;;16.15;7.95;;;10.90;99.90;;;;;;5113563;28;20186;-52
2022/10/13 03:43:43;;;;;;;14.38;7.20;;;11.00;99.90;;;;;;5113494;28;20176;-52
2022/10/13 03:46:12;;;;;;;10.27;6.70;;;11.00;99.90;;;;;;5113591;28;20245;-52
2022/10/13 03:48:38;;;;;;;24.13;8.38;;;11.00;99.90;;;;;;5113737;28;20511;-51
2022/10/13 03:51:06;;;;;;;15.93;7.55;;;11.00;99.90;;;;;;5113378;28;20177;-52
2022/10/13 03:53:31;;;;;;;11.45;7.00;;;11.00;99.90;;;;;;5113727;28;20169;-51
2022/10/13 03:55:57;;;;;;;10.73;6.82;;;11.00;99.90;;;;;;5113483;28;20171;-51
2022/10/13 03:58:24;;;;;;;14.70;7.57;;;11.00;99.90;;;;;;5113195;28;20204;-51
2022/10/13 04:00:51;;;;;;;11.00;6.40;;;11.00;99.90;;;;;;5113380;28;20576;-52
2022/10/13 04:03:16;;;;;;;11.10;7.28;;;10.90;99.90;;;;;;5112716;28;20195;-51
2022/10/13 04:05:42;;;;;;;15.75;7.63;;;11.00;99.90;;;;;;5112765;28;20632;-52
2022/10/13 04:08:09;;;;;;;15.52;7.22;;;10.90;99.90;;;;;;5113057;28;20157;-52
2022/10/13 04:10:34;;;;;;;12.02;7.65;;;11.00;99.90;;;;;;5113184;28;20181;-52
2022/10/13 04:13:00;;;;;;;11.10;6.95;;;11.10;99.90;;;;;;5112936;28;20157;-52
2022/10/13 04:15:26;;;;;;;14.32;6.95;;;11.10;99.90;;;;;;5113375;28;20628;-51
2022/10/13 04:17:51;;;;;;;10.07;6.30;;;11.10;99.90;;;;;;5112837;28;20260;-51
2022/10/13 04:20:17;;;;;;;13.98;6.95;;;11.10;99.90;;;;;;5112827;28;20187;-51
2022/10/13 04:22:43;;;;;;;10.07;6.45;;;11.10;99.90;;;;;;5094529;28;20168;-52
2022/10/13 04:25:09;;;;;;;13.38;6.82;;;11.20;99.90;;;;;;5112806;28;20293;-52
2022/10/13 04:27:37;;;;;;;13.07;6.53;;;11.20;99.90;;;;;;5112752;28;20658;-52
2022/10/13 04:30:05;;;;;;;15.80;6.07;;;11.20;99.90;;;;;;5113003;28;20245;-51
2022/10/13 04:32:30;;;;;;;7.57;5.68;;;11.20;99.90;;;;;;5112982;28;20168;-52
2022/10/13 04:34:56;;;;;;;10.32;5.93;;;11.20;99.90;;;;;;5113101;28;20293;-52
2022/10/13 04:37:22;;;;;;;15.32;6.57;;;11.20;99.90;;;;;;5112532;28;20658;-53
2022/10/13 04:39:48;;;;;;;19.50;8.80;;;11.20;99.90;;;;;;5112536;28;20540;-52
2022/10/13 04:42:13;;;;;;;14.77;7.68;;;11.20;99.90;;;;;;5112550;28;20165;-52
2022/10/13 04:44:39;;;;;;;9.30;6.95;;;11.20;99.90;;;;;;5112700;28;20194;-52
2022/10/13 04:47:04;;;;;;;8.73;5.80;;;11.20;99.90;;;;;;5112456;28;20203;-52
2022/10/13 04:49:30;;;;;;;10.25;6.25;;;11.30;99.90;;;;;;5112266;28;20210;-53
2022/10/13 04:51:56;;;;;;;20.00;10.30;;;11.30;99.90;;;;;;5112851;28;20659;-51
2022/10/13 04:54:21;;;;;;;12.38;7.53;;;11.20;99.90;;;;;;5112146;28;20217;-52
2022/10/13 04:56:47;;;;;;;11.40;6.30;;;11.30;99.90;;;;;;5111858;28;20303;-52
2022/10/13 04:59:12;;;;;;;13.82;7.30;;;11.30;99.90;;;;;;5112197;28;20173;-51
2022/10/13 05:01:38;;;;;;;18.08;6.78;;;11.30;99.90;;;;;;5112111;28;20171;-51
2022/10/13 05:04:04;;;;;;;11.02;6.70;;;11.20;99.90;;;;;;5112213;28;20172;-52
2022/10/13 05:06:34;;;;;;;13.90;7.57;;;11.30;99.90;;;;;;5112211;28;20197;-51
2022/10/13 05:09:00;;;;;;;20.33;8.90;;;11.30;99.90;;;;;;5112154;28;20168;-51
2022/10/13 05:11:27;;;;;;;12.52;6.07;;;11.30;99.90;;;;;;5112555;28;20176;-51
2022/10/13 05:13:54;;;;;;;13.98;7.30;;;11.30;99.90;;;;;;5114740;28;20582;-51
2022/10/13 05:16:21;;;;;;;12.27;6.72;;;11.30;99.90;;;;;;5116350;28;20608;-50
2022/10/13 05:18:47;;;;;;;12.02;7.32;;;11.30;99.90;;;;;;5116566;28;20216;-50
2022/10/13 05:21:18;;;;;;;20.50;8.20;;;11.30;99.90;;;;;;5116297;28;20156;-52
2022/10/13 05:23:44;;;;;;;15.25;6.65;;;11.30;99.90;;;;;;5116271;28;20160;-52
2022/10/13 05:26:13;;;;;;;17.05;7.72;;;11.30;99.90;;;;;;5116464;28;20267;-52
2022/10/13 05:28:39;;;;;;;16.30;7.88;;;11.40;99.90;;;;;;5116141;28;20707;-52
2022/10/13 05:31:10;;;;;;;13.40;7.05;;;11.40;99.90;;;;;;5116105;28;20168;-51
2022/10/13 05:33:36;;;;;;;13.20;7.18;;;11.40;99.90;;;;;;5116026;28;20221;-52
2022/10/13 05:36:07;;;;;;;14.52;8.23;;;11.30;99.90;;;;;;5116275;28;20165;-53
2022/10/13 05:38:32;;;;;;;12.60;7.18;;;11.40;99.90;;;;;;5116118;28;20239;-51
2022/10/13 05:41:06;;;;;;;16.42;8.45;;;11.30;99.90;;;;;;5115864;28;20193;-52
2022/10/13 05:43:32;;;;;;;9.60;6.75;;;11.30;99.90;;;;;;5115814;28;20240;-51
2022/10/13 05:45:59;;;;;;;19.45;8.57;;;11.40;99.90;;;;;;5115848;28;20164;-51
2022/10/13 05:48:25;;;;;;;17.73;8.35;;;11.30;99.90;;;;;;5116098;28;20165;-51
2022/10/13 05:50:51;;;;;;;13.02;8.55;;;11.30;99.90;;;;;;5115606;28;20179;-50
2022/10/13 05:53:16;;;;;;;20.40;8.93;;;11.30;99.90;;;;;;5115646;28;20192;-51
2022/10/13 05:55:42;;;;;;;15.10;7.95;;;11.30;99.90;;;;;;5115677;28;20219;-51
2022/10/13 05:58:08;;;;;;;16.98;7.80;;;11.30;99.90;;;;;;5115326;28;20268;-50
2022/10/13 06:00:34;;;;;;;18.33;9.00;;;11.30;99.90;;;;;;5115643;28;20220;-51
2022/10/13 06:03:12;;;;;;;17.75;9.27;;;11.30;99.90;;;;;;5115531;28;20644;-52
2022/10/13 06:05:39;;;;;;;13.63;8.60;;;11.30;99.90;;;;;;5115718;28;20172;-51
2022/10/13 06:08:05;;;;;;;20.42;10.00;;;11.40;99.90;;;;;;5115397;28;20164;-51
2022/10/13 06:10:31;;;;;;;27.55;14.35;;;11.30;99.90;;;;;;5115371;28;20161;-51
2022/10/13 06:12:56;;;;;;;30.95;15.25;;;11.30;99.90;;;;;;5115689;28;20187;-51
2022/10/13 06:15:22;;;;;;;33.28;16.13;;;11.30;99.90;;;;;;5115112;28;20646;-51
2022/10/13 06:17:47;;;;;;;20.75;11.68;;;11.30;99.90;;;;;;5115112;28;20239;-51
2022/10/13 06:20:13;;;;;;;16.13;9.50;;;11.30;99.90;;;;;;5115150;28;20229;-50
2022/10/13 06:22:38;;;;;;;14.52;8.30;;;11.30;99.90;;;;;;5115126;28;20203;-52
2022/10/13 06:25:06;;;;;;;15.40;7.93;;;11.30;99.90;;;;;;5114389;28;20164;-51
2022/10/13 06:27:32;;;;;;;25.33;13.15;;;11.30;99.90;;;;;;5115015;28;20171;-51
2022/10/13 06:29:57;;;;;;;33.05;16.33;;;11.30;99.90;;;;;;5115044;28;20605;-51
2022/10/13 06:32:23;;;;;;;33.13;14.57;;;11.30;99.90;;;;;;5115344;28;20176;-52
2022/10/13 06:34:49;;;;;;;45.85;20.25;;;11.30;99.90;;;;;;5114934;28;20160;-51
2022/10/13 06:37:15;;;;;;;25.92;13.00;;;11.30;99.90;;;;;;5114803;28;20231;-51
2022/10/13 06:39:41;;;;;;;30.33;12.70;;;11.30;99.90;;;;;;5114869;28;20169;-51
2022/10/13 06:42:07;;;;;;;28.60;12.48;;;11.40;99.90;;;;;;5114740;28;20222;-51
2022/10/13 06:44:32;;;;;;;27.15;11.05;;;11.30;99.90;;;;;;5114534;28;20157;-47
2022/10/13 06:46:59;;;;;;;28.45;12.80;;;11.40;99.90;;;;;;5113417;28;20180;-48
2022/10/13 06:49:25;;;;;;;20.45;9.20;;;11.50;99.90;;;;;;5114729;28;20536;-47
2022/10/13 06:51:50;;;;;;;26.48;12.68;;;11.50;99.90;;;;;;5095033;28;20625;-51
2022/10/13 06:54:16;;;;;;;32.55;15.43;;;11.60;99.90;;;;;;5112888;28;20671;-50
2022/10/13 06:56:41;;;;;;;45.42;15.07;;;11.60;99.90;;;;;;5113105;28;20221;-50
2022/10/13 06:59:07;;;;;;;20.10;10.65;;;11.60;99.90;;;;;;5113282;28;20177;-52
2022/10/13 07:01:33;;;;;;;32.83;13.32;;;11.60;99.90;;;;;;5113126;28;20192;-50
2022/10/13 07:03:58;;;;;;;63.70;24.15;;;11.70;99.90;;;;;;5113019;28;20200;-51
2022/10/13 07:06:24;;;;;;;79.32;27.63;;;11.70;99.90;;;;;;5113100;28;20206;-50
2022/10/13 07:08:49;;;;;;;27.75;13.30;;;11.80;99.90;;;;;;5112816;28;20164;-49
2022/10/13 07:11:17;;;;;;;21.63;11.88;;;11.80;99.90;;;;;;5112873;28;20270;-50
2022/10/13 07:13:43;;;;;;;50.92;20.67;;;11.90;99.90;;;;;;5112708;28;20157;-47
2022/10/13 07:16:09;;;;;;;48.67;19.10;;;11.90;99.90;;;;;;5112750;28;20176;-52
2022/10/13 07:18:34;;;;;;;46.33;20.73;;;11.90;99.90;;;;;;5112489;28;20196;-51
2022/10/13 07:21:01;;;;;;;34.22;16.95;;;11.90;99.90;;;;;;5112398;28;20616;-51
2022/10/13 07:23:27;;;;;;;35.67;17.30;;;12.00;99.90;;;;;;5112617;28;20165;-51
2022/10/13 07:25:55;;;;;;;57.83;24.10;;;12.10;99.90;;;;;;5112452;28;20161;-51
2022/10/13 07:28:21;;;;;;;29.60;14.05;;;12.10;99.90;;;;;;5112074;28;20179;-51
2022/10/13 07:30:47;;;;;;;14.93;8.55;;;12.10;99.90;;;;;;5112025;28;20160;-51
2022/10/13 07:33:12;;;;;;;16.35;9.38;;;12.20;99.90;;;;;;5111996;28;20157;-51
2022/10/13 07:35:38;;;;;;;20.00;9.32;;;12.20;99.90;;;;;;5111961;28;20198;-51
2022/10/13 07:38:04;;;;;;;20.42;9.43;;;12.20;99.90;;;;;;5111053;28;20299;-51
2022/10/13 07:40:30;;;;;;;29.30;12.90;;;12.30;99.90;;;;;;5112181;28;20162;-51
2022/10/13 07:42:56;;;;;;;42.90;21.73;;;12.30;99.90;;;;;;5111996;28;20727;-51
2022/10/13 07:45:22;;;;;;;56.47;28.88;;;12.40;99.90;;;;;;5112287;28;20168;-51
2022/10/13 07:47:48;;;;;;;31.50;17.58;;;12.40;99.90;;;;;;5112976;28;20548;-51
2022/10/13 07:50:13;;;;;;;17.60;11.48;;;12.60;99.90;;;;;;5113239;28;20161;-50
2022/10/13 07:52:39;;;;;;;14.30;8.85;;;12.60;99.90;;;;;;5113321;28;20171;-51
2022/10/13 07:55:05;;;;;;;23.55;14.23;;;12.70;99.90;;;;;;5113278;28;20240;-51
2022/10/13 07:57:31;;;;;;;22.20;13.05;;;12.80;99.90;;;;;;5112875;28;20217;-50
2022/10/13 07:59:56;;;;;;;21.60;11.68;;;12.80;99.90;;;;;;5113205;28;20167;-51
2022/10/13 08:02:22;;;;;;;13.80;9.05;;;12.90;99.90;;;;;;5113304;28;20619;-51
2022/10/13 08:04:48;;;;;;;17.20;10.23;;;12.90;99.90;;;;;;5113105;28;20247;-51
2022/10/13 08:07:15;;;;;;;15.15;8.55;;;12.90;99.90;;;;;;5113090;28;20217;-51
2022/10/13 08:09:41;;;;;;;15.68;9.10;;;13.00;99.90;;;;;;5113114;28;20168;-50
2022/10/13 08:12:07;;;;;;;16.58;11.25;;;13.00;99.90;;;;;;5113038;28;20170;-51
2022/10/13 08:14:32;;;;;;;25.27;15.88;;;13.00;99.90;;;;;;5113018;28;20198;-50
2022/10/13 08:16:58;;;;;;;36.15;18.40;;;13.00;99.90;;;;;;5112636;28;20204;-51
2022/10/13 08:19:25;;;;;;;32.25;17.95;;;13.10;99.90;;;;;;5113524;28;20168;-50
2022/10/13 08:21:51;;;;;;;28.33;17.80;;;13.20;99.90;;;;;;5112356;28;20247;-52
2022/10/13 08:24:17;;;;;;;31.95;19.48;;;13.30;99.90;;;;;;5112703;28;20161;-50
2022/10/13 08:26:44;;;;;;;21.08;12.48;;;13.40;99.90;;;;;;5112754;28;20218;-50
2022/10/13 08:29:11;;;;;;;20.63;11.77;;;13.50;99.90;;;;;;5112751;28;20248;-50
2022/10/13 08:31:37;;;;;;;21.55;9.60;;;13.60;99.90;;;;;;5112891;28;20261;-50
2022/10/13 08:34:02;;;;;;;12.80;7.60;;;13.60;99.90;;;;;;5112628;28;20590;-51
2022/10/13 08:36:28;;;;;;;13.48;8.15;;;13.70;99.90;;;;;;5094379;28;20169;-50
2022/10/13 08:38:53;;;;;;;20.17;8.32;;;13.70;99.90;;;;;;5112818;28;20207;-51
2022/10/13 08:41:23;;;;;;;15.80;9.70;;;13.80;99.90;;;;;;5112521;28;20502;-51
2022/10/13 08:43:52;;;;;;;23.30;11.27;;;13.90;99.90;;;;;;5112483;28;20531;-50
2022/10/13 08:46:43;;;;;;;14.38;7.72;;;14.00;99.90;;;;;;5112381;28;20188;-50
2022/10/13 08:49:08;;;;;;;14.75;8.07;;;14.10;99.90;;;;;;5112153;28;20721;-50
2022/10/13 08:51:35;;;;;;;12.73;7.90;;;14.30;99.90;;;;;;5112369;28;20177;-51
2022/10/13 08:54:01;;;;;;;12.75;8.20;;;14.30;99.90;;;;;;5112557;28;20165;-50
2022/10/13 08:56:32;;;;;;;13.85;7.93;;;14.50;99.90;;;;;;5112214;28;20245;-51
2022/10/13 08:59:00;;;;;;;12.18;8.60;;;14.50;99.90;;;;;;5112490;28;20728;-52
2022/10/13 09:01:30;;;;;;;11.27;7.10;;;14.60;99.90;;;;;;5113016;28;20263;-51
2022/10/13 09:04:25;;;;;;;12.40;6.72;;;14.50;99.90;;;;;;5112605;28;20247;-51
2022/10/13 09:07:05;;;;;;;18.00;8.30;;;14.60;99.90;;;;;;5112237;28;20210;-51
2022/10/13 09:09:31;;;;;;;15.25;6.72;;;14.90;99.90;;;;;;5112246;28;20164;-51
2022/10/13 09:11:58;;;;;;;16.48;7.85;;;15.10;99.90;;;;;;5112033;28;20498;-51
2022/10/13 09:14:26;;;;;;;13.98;7.82;;;15.30;99.90;;;;;;5112701;28;20327;-51
2022/10/13 09:16:54;;;;;;;12.93;6.65;;;15.50;99.90;;;;;;5112323;28;20222;-51
2022/10/13 09:19:29;;;;;;;15.50;7.53;;;15.80;99.90;;;;;;5112396;28;20192;-51
2022/10/13 09:22:11;;;;;;;15.82;6.95;;;16.00;99.90;;;;;;5112439;28;20168;-51
2022/10/13 09:24:37;;;;;;;9.27;6.13;;;16.10;99.90;;;;;;5112026;28;20165;-51
2022/10/13 09:27:15;;;;;;;12.85;6.93;;;16.10;99.90;;;;;;5112022;28;20214;-51
2022/10/13 09:29:42;;;;;;;14.88;7.93;;;16.20;99.90;;;;;;5094094;28;20259;-51
2022/10/13 09:32:18;;;;;;;26.98;9.55;;;16.30;99.90;;;;;;5112026;28;20659;-51
2022/10/13 09:34:44;;;;;;;15.63;8.35;;;16.20;99.90;;;;;;5111996;28;20164;-51
2022/10/13 09:37:20;;;;;;;16.75;7.90;;;16.20;99.90;;;;;;5112091;28;20196;-51
2022/10/13 09:40:10;;;;;;;13.60;7.75;;;16.50;99.90;;;;;;5112136;28;20173;-50
2022/10/13 09:42:36;;;;;;;12.05;7.47;;;16.70;99.90;;;;;;5111861;28;20172;-51
2022/10/13 09:45:14;;;;;;;13.32;6.82;;;16.70;99.90;;;;;;5111851;28;20658;-51
2022/10/13 09:47:47;;;;;;;14.57;7.43;;;16.80;99.90;;;;;;5111774;28;20200;-50
2022/10/13 09:50:19;;;;;;;17.13;7.95;;;17.00;99.90;;;;;;5111842;28;20160;-51
2022/10/13 09:52:46;;;;;;;17.23;8.73;;;17.40;99.90;;;;;;5111720;28;20667;-51
2022/10/13 09:55:41;;;;;;;16.67;7.75;;;17.60;99.90;;;;;;5112006;28;20173;-51
2022/10/13 09:58:24;;;;;;;16.52;7.38;;;17.50;99.90;;;;;;5089729;28;20563;-50
2022/10/13 10:00:51;;;;;;;12.32;6.97;;;17.50;99.90;;;;;;5113542;28;20197;-51
2022/10/13 10:03:31;;;;;;;15.45;6.50;;;17.30;99.90;;;;;;5115376;28;20165;-51
2022/10/13 10:06:00;;;;;;;10.55;6.25;;;17.10;99.90;;;;;;5115343;28;20194;-50
2022/10/13 10:08:45;;;;;;;11.68;4.80;;;17.00;99.90;;;;;;5115453;28;20171;-50
2022/10/13 10:11:15;;;;;;;13.32;4.97;;;16.90;99.90;;;;;;5115294;28;20179;-50
2022/10/13 10:13:41;;;;;;;9.02;4.35;;;16.90;99.90;;;;;;5096918;28;20160;-51
2022/10/13 10:16:18;;;;;;;14.07;5.00;;;16.90;99.90;;;;;;5115577;28;20176;-51
2022/10/13 10:18:59;;;;;;;9.82;5.15;;;16.80;99.90;;;;;;5114978;28;20275;-50
2022/10/13 10:21:42;;;;;;;17.15;4.63;;;16.80;99.90;;;;;;5115372;28;20192;-51
2022/10/13 10:24:29;;;;;;;10.65;4.10;;;15.50;99.90;;;;;;5114789;28;20165;-52
2022/10/13 10:26:59;;;;;;;8.88;3.75;;;16.80;99.90;;;;;;5115261;28;20172;-52
2022/10/13 10:29:57;;;;;;;10.50;3.92;;;16.80;99.90;;;;;;5115027;28;20168;-51
2022/10/13 10:32:50;;;;;;;9.18;3.85;;;16.80;99.90;;;;;;5059369;28;20254;-52
2022/10/13 10:35:27;;;;;;;14.30;4.22;;;16.80;99.90;;;;;;5114932;28;20165;-51
2022/10/13 10:38:02;;;;;;;11.55;4.30;;;16.80;99.90;;;;;;5114611;28;20199;-51
2022/10/13 10:41:05;;;;;;;13.13;4.15;;;16.90;99.90;;;;;;5114545;28;20156;-52
2022/10/13 10:43:50;;;;;;;11.23;4.32;;;17.00;99.90;;;;;;5058687;28;20310;-52
2022/10/13 10:46:29;;;;;;;11.75;4.10;;;16.90;99.90;;;;;;5114390;28;20190;-52
2022/10/13 10:48:59;;;;;;;11.27;4.00;;;17.00;99.90;;;;;;5114881;28;20187;-52
2022/10/13 10:51:34;;;;;;;7.78;3.47;;;17.00;99.90;;;;;;5114848;28;20210;-52
2022/10/13 10:54:36;;;;;;;6.10;3.63;;;17.00;99.90;;;;;;5114666;28;20172;-52
2022/10/13 10:57:51;;;;;;;9.70;3.40;;;17.00;99.90;;;;;;5114146;28;20577;-50
2022/10/13 11:00:20;;;;;;;7.28;3.10;;;16.90;99.90;;;;;;5039213;28;20187;-50
2022/10/13 11:03:00;;;;;;;10.35;3.63;;;16.80;99.90;;;;;;5114584;28;20254;-50
2022/10/13 11:05:50;;;;;;;10.77;3.60;;;16.80;99.90;;;;;;5114761;28;20252;-50
2022/10/13 11:08:42;;;;;;;7.28;3.45;;;16.80;99.90;;;;;;5062334;28;20189;-50
2022/10/13 11:11:19;;;;;;;7.60;3.20;;;16.80;99.90;;;;;;5114019;28;20228;-49
2022/10/13 11:14:27;;;;;;;6.88;3.15;;;16.70;99.90;;;;;;5114118;28;20176;-50
2022/10/13 11:17:05;;;;;;;6.65;3.05;;;16.60;99.90;;;;;;5086671;28;20180;-50
2022/10/13 11:19:35;;;;;;;10.45;3.45;;;16.50;99.90;;;;;;5113968;28;20253;-50
2022/10/13 11:22:00;;;;;;;5.72;2.90;;;16.50;99.90;;;;;;5113887;28;20168;-49
2022/10/13 11:24:35;;;;;;;5.28;2.97;;;16.40;99.90;;;;;;5114150;28;20679;-50
2022/10/13 11:27:06;;;;;;;8.32;3.20;;;16.30;99.90;;;;;;5113248;28;20266;-50
2022/10/13 11:29:51;;;;;;;6.18;3.40;;;16.10;99.90;;;;;;5113710;28;20165;-50
2022/10/13 11:32:26;;;;;;;4.95;2.85;;;16.60;99.90;;;;;;5114168;28;20817;-50
2022/10/13 11:35:09;;;;;;;4.70;3.00;;;16.10;99.90;;;;;;5113614;28;20171;-50
2022/10/13 11:37:43;;;;;;;5.80;3.50;;;16.00;99.90;;;;;;5113307;28;20632;-52
2022/10/13 11:40:27;;;;;;;8.10;3.47;;;15.90;99.90;;;;;;5113292;28;20183;-52
2022/10/13 11:43:31;;;;;;;7.53;3.63;;;15.90;99.90;;;;;;5114246;28;20287;-51
2022/10/13 11:46:23;;;;;;;6.82;3.03;;;15.90;99.90;;;;;;5023318;28;20191;-49
2022/10/13 11:49:09;;;;;;;5.95;3.72;;;15.80;99.90;;;;;;5113718;28;20176;-51
2022/10/13 11:51:52;;;;;;;10.07;4.53;;;15.80;99.90;;;;;;5096487;28;20160;-55
2022/10/13 11:54:18;;;;;;;7.63;3.65;;;15.80;99.90;;;;;;5112244;28;20204;-54
2022/10/13 11:56:50;;;;;;;4.72;3.30;;;15.90;99.90;;;;;;5112812;28;20616;-51
2022/10/13 11:59:30;;;;;;;11.07;4.10;;;16.00;99.90;;;;;;5111631;28;20764;-52
2022/10/13 12:02:16;;;;;;;4.82;3.20;;;16.00;99.90;;;;;;5113793;28;20164;-52
2022/10/13 12:04:43;;;;;;;7.43;3.75;;;16.10;99.90;;;;;;5112644;28;20173;-52
2022/10/13 12:07:11;;;;;;;6.10;3.45;;;16.30;99.90;;;;;;5112733;28;20172;-50
2022/10/13 12:09:56;;;;;;;8.80;4.07;;;16.30;99.90;;;;;;5112533;28;20157;-52
2022/10/13 12:12:24;;;;;;;6.13;4.03;;;16.20;99.90;;;;;;5113155;28;20160;-51
2022/10/13 12:14:52;;;;;;;6.38;3.60;;;16.40;99.90;;;;;;5113019;28;20184;-52
2022/10/13 12:17:27;;;;;;;6.40;4.22;;;16.40;99.90;;;;;;5112229;28;20597;-52
2022/10/13 12:19:54;;;;;;;7.25;3.80;;;16.50;99.90;;;;;;5113300;28;20201;-51
2022/10/13 12:22:20;;;;;;;8.05;3.63;;;16.50;99.90;;;;;;5111887;28;20206;-53
2022/10/13 12:25:00;;;;;;;6.30;3.63;;;16.50;99.90;;;;;;5112588;28;20176;-53
2022/10/13 12:27:27;;;;;;;10.77;6.38;;;16.50;99.90;;;;;;5113210;28;20169;-52
2022/10/13 12:29:53;;;;;;;8.05;6.07;;;16.60;99.90;;;;;;5113237;28;20182;-52
2022/10/13 12:32:30;;;;;;;28.02;19.23;;;16.70;99.90;;;;;;5112709;28;20184;-53
2022/10/13 12:35:09;;;;;;;12.65;6.88;;;16.80;99.90;;;;;;5112991;28;20220;-53
2022/10/13 12:37:36;;;;;;;6.00;5.13;;;16.90;99.90;;;;;;5112508;28;20204;-53
2022/10/13 12:40:03;;;;;;;11.80;6.03;;;17.00;99.90;;;;;;5112736;28;20522;-53
2022/10/13 12:42:31;;;;;;;10.93;4.78;;;17.00;99.90;;;;;;5112420;28;20191;-53
2022/10/13 12:44:58;;;;;;;39.95;24.05;;;17.00;99.90;;;;;;5112511;28;20587;-52
2022/10/13 12:47:46;;;;;;;18.75;9.07;;;16.90;99.90;;;;;;5112429;28;20575;-53
2022/10/13 12:50:26;;;;;;;15.43;9.52;;;16.90;99.90;;;;;;5110872;28;20168;-53
2022/10/13 12:53:02;;;;;;;12.80;6.70;;;16.90;99.90;;;;;;5112799;28;20173;-53